createdAt,value
2022-08-26T00:00:58.692Z,101310.19
2022-08-26T00:03:25.066Z,101310.03
2022-08-26T00:05:51.425Z,101306.59
2022-08-26T00:08:18.427Z,101305.75
2022-08-26T00:10:44.851Z,101311.25
2022-08-26T00:13:11.829Z,101310.03
2022-08-26T00:15:38.991Z,101314.84
2022-08-26T00:18:05.480Z,101310.19
2022-08-26T00:20:48.487Z,101314.84
2022-08-26T00:23:15.051Z,101308.72
2022-08-26T00:25:42.713Z,101315.06
2022-08-26T00:28:09.433Z,101317.59
2022-08-26T00:30:37.925Z,101315.91
2022-08-26T00:33:06.195Z,101317.59
2022-08-26T00:35:33.801Z,101315.06
2022-08-26T00:38:01.046Z,101320.97
2022-08-26T00:40:33.085Z,101322.88
2022-08-26T00:43:00.536Z,101320.13
2022-08-26T00:45:27.277Z,101317.38
2022-08-26T00:47:55.746Z,101318.38
2022-08-26T00:50:24.541Z,101314.78
2022-08-26T00:52:53.226Z,101312.25
2022-08-26T00:55:22.204Z,101315.00
2022-08-26T00:57:49.905Z,101315.19
2022-08-26T01:00:22.027Z,101317.94
2022-08-26T01:02:48.988Z,101323.44
2022-08-26T01:05:16.516Z,101326.00
2022-08-26T01:07:43.084Z,101320.03
2022-08-26T01:10:11.436Z,101320.88
2022-08-26T01:12:42.622Z,101315.19
2022-08-26T01:15:11.416Z,101315.00
2022-08-26T01:17:38.863Z,101316.91
2022-08-26T01:20:13.322Z,101311.59
2022-08-26T01:22:43.540Z,101313.31
2022-08-26T01:25:10.473Z,101312.63
2022-08-26T01:27:36.905Z,101319.19
2022-08-26T01:30:04.990Z,101327.22
2022-08-26T01:32:31.857Z,101316.44
2022-08-26T01:34:58.538Z,101321.94
2022-08-26T01:37:28.590Z,101315.78
2022-08-26T01:39:56.111Z,101322.34
2022-08-26T01:42:24.651Z,101328.47
2022-08-26T01:44:53.643Z,101319.59
2022-08-26T01:47:21.668Z,101323.34
2022-08-26T01:49:50.882Z,101329.91
2022-08-26T01:52:28.019Z,101328.47
2022-08-26T01:54:55.619Z,101324.03
2022-08-26T01:57:23.296Z,101326.78
2022-08-26T01:59:50.632Z,101336.53
2022-08-26T02:02:17.664Z,101330.19
2022-08-26T02:04:48.725Z,101328.47
2022-08-26T02:07:17.632Z,101333.13
2022-08-26T02:09:46.354Z,101335.22
2022-08-26T02:12:15.118Z,101329.53
2022-08-26T02:14:43.952Z,101328.47
2022-08-26T02:17:11.204Z,101324.78
2022-08-26T02:19:40.595Z,101319.28
2022-08-26T02:22:11.419Z,101320.81
2022-08-26T02:24:50.166Z,101326.78
2022-08-26T02:27:17.917Z,101330.59
2022-08-26T02:29:47.191Z,101336.09
2022-08-26T02:32:18.612Z,101332.38
2022-08-26T02:34:45.713Z,101325.66
2022-08-26T02:37:12.975Z,101325.25
2022-08-26T02:39:40.703Z,101327.38
2022-08-26T02:42:07.760Z,101329.28
2022-08-26T02:44:34.143Z,101322.03
2022-08-26T02:47:00.537Z,101326.41
2022-08-26T02:49:27.487Z,101334.25
2022-08-26T02:51:53.918Z,101330.66
2022-08-26T02:54:23.504Z,101330.84
2022-08-26T02:56:51.283Z,101327.53
2022-08-26T02:59:18.109Z,101323.78
2022-08-26T03:01:48.258Z,101328.97
2022-08-26T03:04:15.192Z,101323.66
2022-08-26T03:06:41.935Z,101336.75
2022-08-26T03:09:08.373Z,101337.59
2022-08-26T03:11:35.627Z,101347.16
2022-08-26T03:14:03.804Z,101337.88
2022-08-26T03:16:34.181Z,101343.19
2022-08-26T03:19:02.328Z,101353.31
2022-08-26T03:21:29.596Z,101347.66
2022-08-26T03:23:58.622Z,101343.03
2022-08-26T03:26:25.617Z,101348.88
2022-08-26T03:29:10.411Z,101349.25
2022-08-26T03:31:36.834Z,101348.59
2022-08-26T03:34:04.137Z,101342.41
2022-08-26T03:36:30.879Z,101347.53
2022-08-26T03:38:58.043Z,101346.50
2022-08-26T03:41:24.418Z,101352.84
2022-08-26T03:43:50.994Z,101347.16
2022-08-26T03:46:18.083Z,101353.31
2022-08-26T03:48:44.632Z,101347.81
2022-08-26T03:51:12.519Z,101338.72
2022-08-26T03:53:38.876Z,101337.88
2022-08-26T03:56:06.480Z,101343.38
2022-08-26T03:58:33.174Z,101348.41
2022-08-26T04:00:59.673Z,101342.03
2022-08-26T04:03:45.434Z,101347.16
2022-08-26T04:06:12.035Z,101353.69
2022-08-26T04:08:38.537Z,101345.44
2022-08-26T04:11:05.504Z,101353.50
2022-08-26T04:13:32.330Z,101345.66
2022-08-26T04:15:59.230Z,101346.91
2022-08-26T04:18:31.426Z,101350.09
2022-08-26T04:21:07.812Z,101349.25
2022-08-26T04:23:34.887Z,101349.44
2022-08-26T04:26:14.343Z,101348.59
2022-08-26T04:28:40.700Z,101351.16
2022-08-26T04:31:10.321Z,101350.94
2022-08-26T04:33:36.770Z,101347.91
2022-08-26T04:36:08.645Z,101346.44
2022-08-26T04:38:35.043Z,101346.59
2022-08-26T04:41:03.201Z,101353.16
2022-08-26T04:43:31.968Z,101359.31
2022-08-26T04:45:59.845Z,101356.16
2022-08-26T04:48:27.722Z,101354.94
2022-08-26T04:50:54.066Z,101357.44
2022-08-26T04:53:21.180Z,101354.47
2022-08-26T04:55:48.554Z,101368.03
2022-08-26T04:58:16.078Z,101372.66
2022-08-26T05:00:43.476Z,101368.59
2022-08-26T05:03:10.327Z,101367.56
2022-08-26T05:05:41.544Z,101366.22
2022-08-26T05:08:08.850Z,101361.41
2022-08-26T05:10:38.877Z,101361.66
2022-08-26T05:13:11.066Z,101369.66
2022-08-26T05:15:38.966Z,101369.66
2022-08-26T05:18:06.614Z,101374.31
2022-08-26T05:20:38.798Z,101367.56
2022-08-26T05:23:05.511Z,101372.66
2022-08-26T05:25:38.824Z,101371.63
2022-08-26T05:28:06.286Z,101380.06
2022-08-26T05:30:32.758Z,101376.47
2022-08-26T05:33:01.791Z,101378.38
2022-08-26T05:35:32.091Z,101375.41
2022-08-26T05:38:00.487Z,101385.38
2022-08-26T05:40:27.651Z,101381.13
2022-08-26T05:42:54.618Z,101374.78
2022-08-26T05:45:24.092Z,101381.78
2022-08-26T05:47:51.058Z,101384.72
2022-08-26T05:50:21.780Z,101392.97
2022-08-26T05:52:49.444Z,101391.72
2022-08-26T05:55:16.310Z,101390.88
2022-08-26T05:57:45.130Z,101396.38
2022-08-26T06:00:12.673Z,101400.16
2022-08-26T06:02:39.961Z,101392.97
2022-08-26T06:05:07.608Z,101394.19
2022-08-26T06:07:52.752Z,101396.94
2022-08-26T06:10:32.121Z,101395.06
2022-08-26T06:13:02.233Z,101391.25
2022-08-26T06:15:31.356Z,101400.56
2022-08-26T06:17:57.926Z,101405.00
2022-08-26T06:20:24.321Z,101402.91
2022-08-26T06:23:11.210Z,101404.81
2022-08-26T06:25:38.742Z,101413.25
2022-08-26T06:28:05.895Z,101407.75
2022-08-26T06:30:32.894Z,101420.44
2022-08-26T06:32:59.376Z,101416.00
2022-08-26T06:35:26.518Z,101422.56
2022-08-26T06:37:52.971Z,101420.66
2022-08-26T06:40:20.897Z,101423.19
2022-08-26T06:42:47.259Z,101432.50
2022-08-26T06:45:13.803Z,101420.44
2022-08-26T06:47:40.193Z,101427.66
2022-08-26T06:50:06.857Z,101425.09
2022-08-26T06:52:33.229Z,101438.66
2022-08-26T06:55:01.114Z,101438.66
2022-08-26T06:57:28.554Z,101431.44
2022-08-26T06:59:58.192Z,101430.81
2022-08-26T07:02:24.576Z,101439.06
2022-08-26T07:04:56.920Z,101435.25
2022-08-26T07:07:23.334Z,101443.28
2022-08-26T07:09:52.655Z,101440.53
2022-08-26T07:12:19.142Z,101438.00
2022-08-26T07:14:48.127Z,101436.09
2022-08-26T07:17:14.966Z,101442.44
2022-08-26T07:19:41.590Z,101443.13
2022-08-26T07:22:08.573Z,101438.66
2022-08-26T07:24:38.347Z,101443.28
2022-08-26T07:27:06.279Z,101449.63
2022-08-26T07:29:33.189Z,101439.91
2022-08-26T07:31:59.831Z,101443.28
2022-08-26T07:34:26.441Z,101452.81
2022-08-26T07:36:53.460Z,101447.47
2022-08-26T07:39:21.843Z,101452.13
2022-08-26T07:41:48.226Z,101458.47
2022-08-26T07:44:15.582Z,101451.28
2022-08-26T07:46:44.045Z,101451.44
2022-08-26T07:49:12.047Z,101458.47
2022-08-26T07:51:38.542Z,101460.16
2022-08-26T07:54:05.469Z,101466.53
2022-08-26T07:56:31.933Z,101466.94
2022-08-26T07:58:58.306Z,101461.81
2022-08-26T08:01:25.832Z,101466.25
2022-08-26T08:03:53.266Z,101471.38
2022-08-26T08:06:20.316Z,101470.69
2022-08-26T08:08:47.182Z,101469.66
2022-08-26T08:11:14.084Z,101473.06
2022-08-26T08:13:40.748Z,101471.00
2022-08-26T08:16:08.569Z,101474.59
2022-08-26T08:18:40.072Z,101475.81
2022-08-26T08:21:23.905Z,101483.69
2022-08-26T08:23:51.784Z,101479.25
2022-08-26T08:26:18.395Z,101477.91
2022-08-26T08:28:48.192Z,101481.31
2022-08-26T08:31:33.023Z,101479.63
2022-08-26T08:34:05.637Z,101484.75
2022-08-26T08:36:35.873Z,101485.59
2022-08-26T08:39:02.749Z,101487.50
2022-08-26T08:41:35.290Z,101491.09
2022-08-26T08:44:02.446Z,101474.97
2022-08-26T08:46:30.148Z,101489.19
2022-08-26T08:48:59.639Z,101476.97
2022-08-26T08:51:45.679Z,101481.78
2022-08-26T08:54:13.083Z,101487.28
2022-08-26T08:56:42.627Z,101486.63
2022-08-26T08:59:08.967Z,101492.78
2022-08-26T09:01:35.477Z,101487.09
2022-08-26T09:04:07.957Z,101493.63
2022-08-26T09:06:35.111Z,101475.44
2022-08-26T09:09:02.604Z,101485.38
2022-08-26T09:11:30.454Z,101484.34
2022-08-26T09:13:57.627Z,101484.34
2022-08-26T09:16:36.102Z,101491.75
2022-08-26T09:19:03.675Z,101489.56
2022-08-26T09:21:30.166Z,101495.72
2022-08-26T09:23:57.006Z,101495.72
2022-08-26T09:26:29.292Z,101491.28
2022-08-26T09:28:58.884Z,101498.88
2022-08-26T09:31:32.720Z,101493.38
2022-08-26T09:34:17.414Z,101492.31
2022-08-26T09:36:44.164Z,101490.41
2022-08-26T09:39:29.539Z,101492.31
2022-08-26T09:42:05.166Z,101497.34
2022-08-26T09:44:31.991Z,101499.25
2022-08-26T09:47:01.230Z,101498.19
2022-08-26T09:49:29.846Z,101499.91
2022-08-26T09:52:05.456Z,101501.59
2022-08-26T09:54:33.479Z,101500.28
2022-08-26T09:57:18.970Z,101502.34
2022-08-26T09:59:45.695Z,101504.06
2022-08-26T10:02:27.107Z,101491.75
2022-08-26T10:04:56.569Z,101503.31
2022-08-26T10:07:39.225Z,101499.34
2022-08-26T10:10:09.200Z,101497.72
2022-08-26T10:12:39.231Z,101503.03
2022-08-26T10:15:09.442Z,101501.31
2022-08-26T10:17:41.922Z,101500.66
2022-08-26T10:20:23.229Z,101501.31
2022-08-26T10:23:01.366Z,101501.31
2022-08-26T10:25:31.324Z,101505.31
2022-08-26T10:28:04.445Z,101504.94
2022-08-26T10:30:42.956Z,101504.06
2022-08-26T10:33:11.338Z,101507.22
2022-08-26T10:35:44.707Z,101505.47
2022-08-26T10:38:14.576Z,101510.34
2022-08-26T10:40:44.012Z,101507.38
2022-08-26T10:43:14.250Z,101506.53
2022-08-26T10:45:50.406Z,101509.28
2022-08-26T10:48:19.388Z,101508.22
2022-08-26T10:50:47.757Z,101505.09
2022-08-26T10:53:25.388Z,101518.00
2022-08-26T10:56:02.015Z,101511.66
2022-08-26T10:58:39.959Z,101509.56
2022-08-26T11:01:43.624Z,101501.03
2022-08-26T11:04:28.947Z,101508.59
2022-08-26T11:07:14.356Z,101506.44
2022-08-26T11:09:45.630Z,101510.72
2022-08-26T11:12:32.215Z,101509.44
2022-08-26T11:15:00.522Z,101502.72
2022-08-26T11:17:48.934Z,101501.22
2022-08-26T11:20:34.841Z,101503.09
2022-08-26T11:23:13.450Z,101509.28
2022-08-26T11:25:58.949Z,101504.84
2022-08-26T11:28:35.440Z,101505.84
2022-08-26T11:31:03.043Z,101502.47
2022-08-26T11:33:45.827Z,101492.13
2022-08-26T11:36:29.189Z,101500.56
2022-08-26T11:38:55.755Z,101508.81
2022-08-26T11:41:24.237Z,101515.84
2022-08-26T11:43:52.184Z,101504.84
2022-08-26T11:46:27.258Z,101506.53
2022-08-26T11:49:01.024Z,101514.09
2022-08-26T11:51:27.509Z,101507.75
2022-08-26T11:54:09.850Z,101499.34
2022-08-26T11:56:40.384Z,101504.47
2022-08-26T11:59:09.577Z,101503.41
2022-08-26T12:01:37.927Z,101504.47
2022-08-26T12:04:05.931Z,101499.81
2022-08-26T12:06:37.459Z,101500.66
2022-08-26T12:09:11.851Z,101502.72
2022-08-26T12:11:40.175Z,101504.47
2022-08-26T12:14:08.719Z,101499.81
2022-08-26T12:16:38.688Z,101504.47
2022-08-26T12:19:26.315Z,101498.97
2022-08-26T12:21:57.807Z,101499.13
2022-08-26T12:24:25.288Z,101503.97
2022-08-26T12:27:05.962Z,101503.78
2022-08-26T12:29:32.413Z,101504.84
2022-08-26T12:32:09.831Z,101504.38
2022-08-26T12:34:36.558Z,101512.78
2022-08-26T12:37:03.196Z,101514.94
2022-08-26T12:39:29.615Z,101523.41
2022-08-26T12:42:00.169Z,101521.69
2022-08-26T12:44:36.151Z,101519.13
2022-08-26T12:47:10.275Z,101524.81
2022-08-26T12:49:37.818Z,101529.09
2022-08-26T12:52:05.318Z,101530.78
2022-08-26T12:54:54.739Z,101522.06
2022-08-26T12:57:26.471Z,101533.25
2022-08-26T12:59:52.907Z,101522.06
2022-08-26T13:02:38.603Z,101523.41
2022-08-26T13:05:05.453Z,101515.84
2022-08-26T13:07:31.818Z,101521.31
2022-08-26T13:09:58.844Z,101519.13
2022-08-26T13:12:27.217Z,101514.84
2022-08-26T13:14:54.017Z,101516.56
2022-08-26T13:17:21.044Z,101522.06
2022-08-26T13:19:47.444Z,101521.41
2022-08-26T13:22:13.877Z,101529.63
2022-08-26T13:24:42.061Z,101519.31
2022-08-26T13:27:09.905Z,101519.50
2022-08-26T13:29:36.324Z,101519.31
2022-08-26T13:32:03.951Z,101515.72
2022-08-26T13:34:30.421Z,101513.16
2022-08-26T13:36:57.818Z,101510.41
2022-08-26T13:39:24.608Z,101511.94
2022-08-26T13:41:51.413Z,101508.13
2022-08-26T13:44:17.802Z,101500.94
2022-08-26T13:49:15.513Z,101510.03
2022-08-26T13:51:42.007Z,101504.53
2022-08-26T13:54:08.466Z,101505.38
2022-08-26T13:56:35.451Z,101498.88
2022-08-26T13:59:01.817Z,101494.28
2022-08-26T14:01:29.479Z,101504.25
2022-08-26T14:03:56.298Z,101497.50
2022-08-26T14:06:22.828Z,101494.75
2022-08-26T14:08:49.417Z,101498.34
2022-08-26T14:11:15.794Z,101497.13
2022-08-26T14:13:42.158Z,101490.78
2022-08-26T14:16:10.637Z,101495.25
2022-08-26T14:18:42.963Z,101487.47
2022-08-26T14:21:12.557Z,101479.03
2022-08-26T14:23:38.994Z,101472.69
2022-08-26T14:26:08.225Z,101469.47
2022-08-26T14:28:35.047Z,101448.50
2022-08-26T14:31:02.295Z,101448.13
2022-08-26T14:33:32.211Z,101446.06
2022-08-26T14:36:19.325Z,101454.47
2022-08-26T14:38:46.068Z,101452.25
2022-08-26T14:41:13.874Z,101456.00
2022-08-26T14:43:43.424Z,101454.78
2022-08-26T14:46:09.911Z,101452.41
2022-08-26T14:48:36.307Z,101461.50
2022-08-26T14:51:02.687Z,101451.94
2022-08-26T14:53:47.838Z,101458.28
2022-08-26T14:56:16.697Z,101456.38
2022-08-26T14:58:44.031Z,101455.38
2022-08-26T15:01:12.878Z,101462.19
2022-08-26T15:03:39.373Z,101461.50
2022-08-26T15:06:06.271Z,101467.00
2022-08-26T15:08:36.442Z,101462.19
2022-08-26T15:11:03.959Z,101461.13
2022-08-26T15:13:30.607Z,101464.09
2022-08-26T15:15:57.009Z,101473.19
2022-08-26T15:18:23.483Z,101469.75
2022-08-26T15:20:50.304Z,101476.97
2022-08-26T15:23:16.705Z,101473.56
2022-08-26T15:25:48.999Z,101474.22
2022-08-26T15:28:17.796Z,101479.91
2022-08-26T15:30:44.203Z,101479.03
2022-08-26T15:33:10.667Z,101486.25
2022-08-26T15:35:51.244Z,101487.47
2022-08-26T15:38:18.061Z,101490.41
2022-08-26T15:40:48.776Z,101492.13
2022-08-26T15:43:28.177Z,101494.00
2022-08-26T15:45:55.686Z,101491.25
2022-08-26T15:48:22.537Z,101483.88
2022-08-26T15:50:56.295Z,101479.78
2022-08-26T15:53:26.867Z,101477.72
2022-08-26T15:55:54.695Z,101475.44
2022-08-26T15:58:26.429Z,101469.97
2022-08-26T16:00:54.102Z,101463.78
2022-08-26T16:03:24.208Z,101461.88
2022-08-26T16:05:53.451Z,101462.34
2022-08-26T16:08:20.589Z,101467.31
2022-08-26T16:10:50.680Z,101463.97
2022-08-26T16:13:19.616Z,101461.03
2022-08-26T16:16:44.553Z,101454.66
2022-08-26T16:18:58.724Z,101455.56
2022-08-26T16:21:28.558Z,101451.91
2022-08-26T16:23:56.161Z,101456.78
2022-08-26T16:26:25.330Z,101454.19
2022-08-26T16:28:52.415Z,101455.25
2022-08-26T16:31:18.812Z,101448.59
2022-08-26T16:33:46.132Z,101457.44
2022-08-26T16:36:13.088Z,101454.88
2022-08-26T16:38:40.102Z,101451.84
2022-08-26T16:41:07.290Z,101461.50
2022-08-26T16:43:33.921Z,101450.91
2022-08-26T16:46:00.394Z,101453.44
2022-08-26T16:48:27.444Z,101452.13
2022-08-26T16:50:55.337Z,101451.75
2022-08-26T16:53:21.866Z,101456.88
2022-08-26T16:55:48.373Z,101450.03
2022-08-26T16:58:15.001Z,101454.22
2022-08-26T17:00:41.509Z,101453.34
2022-08-26T17:03:07.933Z,101460.72
2022-08-26T17:05:34.662Z,101460.09
2022-08-26T17:08:01.031Z,101468.13
2022-08-26T17:10:28.891Z,101464.53
2022-08-26T17:12:55.851Z,101456.66
2022-08-26T17:15:23.690Z,101472.47
2022-08-26T17:17:53.563Z,101466.31
2022-08-26T17:20:20.888Z,101470.09
2022-08-26T17:22:47.974Z,101477.97
2022-08-26T17:25:20.145Z,101479.50
2022-08-26T17:27:46.856Z,101481.59
2022-08-26T17:30:13.468Z,101477.91
2022-08-26T17:32:40.571Z,101478.28
2022-08-26T17:35:07.062Z,101482.72
2022-08-26T17:37:34.755Z,101481.88
2022-08-26T17:40:05.584Z,101483.28
2022-08-26T17:42:32.027Z,101491.69
2022-08-26T17:44:58.551Z,101488.31
2022-08-26T17:47:27.595Z,101490.56
2022-08-26T17:49:54.015Z,101482.97
2022-08-26T17:52:20.721Z,101480.72
2022-08-26T17:54:47.193Z,101489.16
2022-08-26T17:57:13.689Z,101492.06
2022-08-26T17:59:41.255Z,101490.00
2022-08-26T18:02:11.206Z,101490.84
2022-08-26T18:04:37.660Z,101493.81
2022-08-26T18:07:14.109Z,101499.66
2022-08-26T18:09:42.880Z,101499.28
2022-08-26T18:12:09.528Z,101509.91
2022-08-26T18:14:36.300Z,101498.94
2022-08-26T18:17:03.339Z,101504.78
2022-08-26T18:19:30.091Z,101506.00
2022-08-26T18:21:56.853Z,101504.97
2022-08-26T18:24:23.408Z,101501.38
2022-08-26T18:26:50.918Z,101513.69
2022-08-26T18:29:18.643Z,101516.78
2022-08-26T18:31:45.174Z,101520.31
2022-08-26T18:34:16.039Z,101529.75
2022-08-26T18:36:42.911Z,101527.00
2022-08-26T18:39:09.927Z,101525.66
2022-08-26T18:41:43.543Z,101524.63
2022-08-26T18:44:13.396Z,101527.72
2022-08-26T18:46:40.211Z,101531.53
2022-08-26T18:49:06.657Z,101535.81
2022-08-26T18:51:33.719Z,101535.13
2022-08-26T18:54:01.311Z,101534.44
2022-08-26T18:56:28.455Z,101532.75
2022-08-26T18:58:54.891Z,101537.19
2022-08-26T19:01:25.520Z,101533.78
2022-08-26T19:03:54.269Z,101535.84
2022-08-26T19:06:22.199Z,101543.03
2022-08-26T19:08:49.987Z,101548.53
2022-08-26T19:11:17.064Z,101549.59
2022-08-26T19:13:57.646Z,101553.38
2022-08-26T19:16:25.871Z,101542.19
2022-08-26T19:18:53.443Z,101554.38
2022-08-26T19:21:20.782Z,101552.69
2022-08-26T19:23:47.318Z,101549.94
2022-08-26T19:26:14.445Z,101546.16
2022-08-26T19:28:41.314Z,101546.16
2022-08-26T19:31:11.827Z,101542.56
2022-08-26T19:33:39.577Z,101546.84
2022-08-26T19:36:06.653Z,101554.22
2022-08-26T19:41:16.830Z,101560.75
2022-08-26T19:43:43.232Z,101555.44
2022-08-26T19:46:18.126Z,101550.16
2022-08-26T19:48:44.771Z,101556.50
2022-08-26T19:51:18.981Z,101558.56
2022-08-26T19:53:46.078Z,101550.31
2022-08-26T19:56:12.838Z,101562.34
2022-08-26T19:58:39.375Z,101556.00
2022-08-26T20:01:05.850Z,101553.25
2022-08-26T20:03:33.292Z,101562.16
2022-08-26T20:06:00.463Z,101560.44
2022-08-26T20:08:28.521Z,101559.75
2022-08-26T20:10:57.777Z,101566.13
2022-08-26T20:13:24.114Z,101570.59
2022-08-26T20:15:50.510Z,101570.59
2022-08-26T20:18:35.777Z,101565.09
2022-08-26T20:21:20.634Z,101558.75
2022-08-26T20:23:47.821Z,101552.53
2022-08-26T20:26:14.201Z,101556.28
2022-08-26T20:28:40.615Z,101564.53
2022-08-26T20:31:07.015Z,101556.50
2022-08-26T20:33:45.978Z,101561.28
2022-08-26T20:36:12.917Z,101563.03
2022-08-26T20:38:39.266Z,101563.03
2022-08-26T20:41:05.853Z,101562.34
2022-08-26T20:43:32.284Z,101571.63
2022-08-26T20:45:58.684Z,101571.44
2022-08-26T20:48:25.106Z,101568.88
2022-08-26T20:50:51.987Z,101568.19
2022-08-26T20:53:18.679Z,101571.78
2022-08-26T20:55:46.040Z,101574.75
2022-08-26T20:58:12.407Z,101573.69
2022-08-26T21:00:38.885Z,101568.19
2022-08-26T21:03:05.407Z,101565.44
2022-08-26T21:05:31.795Z,101577.66
2022-08-26T21:07:58.179Z,101575.94
2022-08-26T21:10:24.576Z,101576.78
2022-08-26T21:12:51.271Z,101575.94
2022-08-26T21:15:17.694Z,101575.94
2022-08-26T21:17:44.060Z,101570.66
2022-08-26T21:20:10.484Z,101580.41
2022-08-26T21:22:37.013Z,101586.09
2022-08-26T21:25:03.574Z,101578.88
2022-08-26T21:27:30.126Z,101576.31
2022-08-26T21:29:56.610Z,101580.94
2022-08-26T21:32:22.996Z,101575.47
2022-08-26T21:34:49.338Z,101577.34
2022-08-26T21:37:16.674Z,101572.72
2022-08-26T21:39:43.439Z,101584.75
2022-08-26T21:42:09.805Z,101575.47
2022-08-26T21:44:36.170Z,101571.00
2022-08-26T21:47:04.758Z,101574.41
2022-08-26T21:49:31.135Z,101566.53
2022-08-26T21:51:57.562Z,101569.59
2022-08-26T21:54:23.975Z,101577.84
2022-08-26T21:56:50.927Z,101572.50
2022-08-26T21:59:17.945Z,101571.88
2022-08-26T22:01:44.397Z,101567.38
2022-08-26T22:04:13.094Z,101580.59
2022-08-26T22:06:42.024Z,101577.16
2022-08-26T22:09:08.531Z,101578.38
2022-08-26T22:11:34.898Z,101577.53
2022-08-26T22:14:01.403Z,101577.72
2022-08-26T22:16:28.642Z,101581.31
2022-08-26T22:18:55.421Z,101585.75
2022-08-26T22:21:24.142Z,101583.38
2022-08-26T22:23:51.091Z,101583.72
2022-08-26T22:26:25.787Z,101587.34
2022-08-26T22:28:57.477Z,101589.22
2022-08-26T22:31:28.153Z,101594.56
2022-08-26T22:34:06.454Z,101599.34
2022-08-26T22:36:32.942Z,101594.22
2022-08-26T22:38:59.275Z,101596.13
2022-08-26T22:41:26.678Z,101599.72
2022-08-26T22:43:53.591Z,101591.69
2022-08-26T22:46:21.400Z,101592.53
2022-08-26T22:48:53.711Z,101595.25
2022-08-26T22:51:21.165Z,101589.97
2022-08-26T22:53:47.616Z,101589.09
2022-08-26T22:56:14.646Z,101596.47
2022-08-26T22:58:41.970Z,101594.59
2022-08-26T23:01:08.422Z,101585.50
2022-08-26T23:03:34.897Z,101584.66
2022-08-26T23:06:04.260Z,101586.53
2022-08-26T23:08:30.831Z,101593.06
2022-08-26T23:10:57.199Z,101590.34
2022-08-26T23:13:23.572Z,101588.25
2022-08-26T23:15:58.985Z,101593.94
2022-08-26T23:18:25.348Z,101589.28
2022-08-26T23:20:51.731Z,101589.47
2022-08-26T23:23:18.553Z,101583.78
2022-08-26T23:25:44.965Z,101578.31
2022-08-26T23:28:12.712Z,101583.78
2022-08-26T23:30:39.212Z,101581.25
2022-08-26T23:33:05.585Z,101583.09
2022-08-26T23:35:31.950Z,101577.63
2022-08-26T23:37:59.814Z,101581.41
2022-08-26T23:40:28.625Z,101577.97
2022-08-26T23:42:56.652Z,101578.50
2022-08-26T23:45:24.701Z,101572.13
2022-08-26T23:47:51.079Z,101572.13
2022-08-26T23:50:18.477Z,101568.38
2022-08-26T23:53:04.115Z,101585.84
2022-08-26T23:55:33.258Z,101577.63
2022-08-26T23:57:59.719Z,101576.59
